Time;durP1;ratioP1;P1;durP2;ratioP2;P2;SDS_P1;SDS_P2;PMS_P1;PMS_P2;Temp;Humidity;BMP_temperature;BMP_pressure;BME280_temperature;BME280_humidity;BME280_pressure;Samples;Min_cycle;Max_cycle;Signal;HPM_P1;HPM_P2
2023/01/31 00:00:35;;;;;;;;;13.60;10.20;;;;;-146.39;100.00;62182.44;6305206;20;2796098;-59
2023/01/31 00:03:04;;;;;;;;;11.50;11.50;;;;;-146.39;100.00;62182.44;6286420;20;2794070;-58
2023/01/31 00:05:31;;;;;;;;;12.00;7.00;;;;;-146.39;100.00;62182.44;6280101;20;2751361;-60
2023/01/31 00:08:00;;;;;;;;;14.50;10.00;;;;;-146.39;100.00;62182.44;6283090;20;2776753;-60
2023/01/31 00:10:28;;;;;;;;;12.00;11.00;;;;;-146.39;100.00;62182.44;6284119;20;2778426;-59
2023/01/31 00:12:57;;;;;;;;;9.25;7.00;;;;;-146.39;100.00;62182.44;6304363;20;1825109;-59
2023/01/31 00:15:24;;;;;;;;;10.00;7.00;;;;;-146.39;100.00;62182.44;6316610;20;2755470;-58
2023/01/31 00:17:55;;;;;;;;;11.00;9.75;;;;;-146.39;100.00;62182.44;6336101;20;1819156;-60
2023/01/31 00:20:22;;;;;;;;;11.00;9.00;;;;;-146.39;100.00;62182.44;6313141;20;2759857;-60
2023/01/31 00:22:51;;;;;;;;;11.25;7.25;;;;;-146.39;100.00;62182.44;6301382;20;1816485;-59
2023/01/31 00:25:21;;;;;;;;;12.33;8.33;;;;;-146.39;100.00;62182.44;6356491;20;1817058;-58
2023/01/31 00:27:49;;;;;;;;;8.50;7.50;;;;;-146.39;100.00;62182.44;6288753;20;2740917;-57
2023/01/31 00:30:17;;;;;;;;;6.00;6.00;;;;;-146.39;100.00;62182.44;6317543;20;2748199;-59
2023/01/31 00:32:47;;;;;;;;;7.33;7.00;;;;;-146.39;100.00;62182.44;6356273;20;1808723;-59
2023/01/31 00:35:16;;;;;;;;;6.25;6.25;;;;;-146.39;100.00;62182.44;6303273;20;1819206;-59
2023/01/31 00:37:44;;;;;;;;;8.00;8.00;;;;;-146.39;100.00;62182.44;6316003;20;2736813;-58
2023/01/31 00:40:12;;;;;;;;;8.50;7.00;;;;;-146.39;100.00;62182.44;6312714;20;2751495;-58
2023/01/31 00:42:39;;;;;;;;;7.00;7.00;;;;;-146.39;100.00;62182.44;6283373;20;2733650;-58
2023/01/31 00:45:09;;;;;;;;;7.75;7.00;;;;;-146.39;100.00;62182.44;6334649;20;1810756;-58
2023/01/31 00:47:37;;;;;;;;;9.00;7.50;;;;;-146.39;100.00;62182.44;6316884;20;2735687;-59
2023/01/31 00:50:06;;;;;;;;;2.00;2.00;;;;;-146.39;100.00;62182.44;6318369;20;2693085;-57
2023/01/31 00:52:33;;;;;;;;;12.00;8.00;;;;;-146.39;100.00;62182.44;6315508;20;2766014;-58
2023/01/31 00:55:02;;;;;;;;;11.50;9.50;;;;;-146.39;100.00;62182.44;6283260;20;2771175;-58
2023/01/31 00:57:31;;;;;;;;;8.00;7.00;;;;;-146.39;100.00;62182.44;6297174;20;1823340;-57
2023/01/31 00:59:59;;;;;;;;;6.75;5.50;;;;;-146.39;100.00;62182.44;6329016;20;1819058;-55
2023/01/31 01:02:27;;;;;;;;;6.50;5.25;;;;;-146.39;100.00;62182.44;6329784;20;1821229;-57
2023/01/31 01:04:55;;;;;;;;;6.50;6.50;;;;;-146.39;100.00;62182.44;6317365;20;2750280;-59
2023/01/31 01:07:24;;;;;;;;;7.75;7.75;;;;;-146.39;100.00;62182.44;6330834;20;1809725;-60
2023/01/31 01:09:53;;;;;;;;;7.00;6.50;;;;;-146.39;100.00;62182.44;6315996;20;2748277;-58
2023/01/31 01:12:21;;;;;;;;;10.50;6.00;;;;;-146.39;100.00;62182.44;6299245;20;1823260;-59
2023/01/31 01:14:50;;;;;;;;;7.00;5.50;;;;;-146.39;100.00;62182.44;6334909;20;1822272;-59
2023/01/31 01:17:18;;;;;;;;;6.00;6.00;;;;;-146.39;100.00;62182.44;6314654;20;2745085;-58
2023/01/31 01:19:46;;;;;;;;;7.25;7.25;;;;;-146.39;100.00;62182.44;6300950;20;1823369;-59
2023/01/31 01:22:14;;;;;;;;;9.00;9.00;;;;;-146.39;100.00;62182.44;6313485;20;2747163;-58
2023/01/31 01:24:44;;;;;;;;;8.00;6.00;;;;;-146.39;100.00;62182.44;6313415;20;2735745;-58
2023/01/31 01:27:13;;;;;;;;;7.00;5.75;;;;;-146.39;100.00;62182.44;6301673;20;1821245;-57
2023/01/31 01:29:40;;;;;;;;;8.00;7.00;;;;;-146.39;100.00;62182.44;6312712;20;2741076;-58
2023/01/31 01:32:08;;;;;;;;;12.00;8.00;;;;;-146.39;100.00;62182.44;6308476;20;2754452;-59
2023/01/31 01:34:36;;;;;;;;;11.00;7.00;;;;;-146.39;100.00;62182.44;6281864;20;2749330;-59
2023/01/31 01:37:10;;;;;;;;;11.00;8.00;;;;;-146.39;100.00;62182.44;6281372;20;2755491;-59
2023/01/31 01:39:38;;;;;;;;;8.00;6.50;;;;;-146.39;100.00;62182.44;6277461;20;2748289;-58
2023/01/31 01:42:16;;;;;;;;;7.75;7.75;;;;;-146.39;100.00;62182.44;6303168;20;1821404;-59
2023/01/31 01:44:50;;;;;;;;;6.00;6.00;;;;;-146.39;100.00;62182.44;6332445;20;1818922;-55
2023/01/31 01:47:45;;;;;;;;;6.25;3.00;;;;;-146.39;100.00;62182.44;6334789;20;1811759;-53
2023/01/31 01:50:39;;;;;;;;;5.50;2.50;;;;;-146.39;100.00;62182.44;6329993;20;1825419;-57
2023/01/31 01:53:21;;;;;;;;;7.00;5.50;;;;;-146.39;100.00;62182.44;6332300;20;1819184;-58
2023/01/31 01:56:10;;;;;;;;;6.00;6.00;;;;;-146.39;100.00;62182.44;6334629;20;1811880;-58
2023/01/31 01:59:04;;;;;;;;;7.50;5.50;;;;;-146.39;100.00;62182.44;6313287;20;2754517;-58
2023/01/31 02:01:36;;;;;;;;;7.50;4.75;;;;;-146.39;100.00;62182.44;6332223;20;1822729;-58
2023/01/31 02:04:12;;;;;;;;;6.75;3.25;;;;;-146.39;100.00;62182.44;6330838;20;1821230;-57
2023/01/31 02:06:40;;;;;;;;;8.00;6.00;;;;;-146.39;100.00;62182.44;6316062;20;2750268;-56
2023/01/31 02:09:33;;;;;;;;;7.00;6.00;;;;;-146.39;100.00;62182.44;6315449;20;2746241;-58
2023/01/31 02:12:02;;;;;;;;;6.50;5.50;;;;;-146.39;100.00;62182.44;6329116;20;1816993;-58
2023/01/31 02:14:31;;;;;;;;;4.00;4.00;;;;;-146.39;100.00;62182.44;6328168;20;1823175;-60
2023/01/31 02:16:59;;;;;;;;;3.00;3.00;;;;;-146.39;100.00;62182.44;6334591;20;1811804;-59
2023/01/31 02:20:14;;;;;;;;;6.25;6.00;;;;;-146.39;100.00;62182.44;6337070;20;1825564;-59
2023/01/31 02:23:36;;;;;;;;;5.50;3.25;;;;;-146.39;100.00;62182.44;6335398;20;1822390;-59
2023/01/31 02:27:00;;;;;;;;;5.75;3.00;;;;;-146.39;100.00;62182.44;6338875;20;1811715;-59
2023/01/31 02:30:17;;;;;;;;;5.00;5.00;;;;;-146.39;100.00;62182.44;6312415;20;2756586;-58
2023/01/31 02:33:37;;;;;;;;;1.33;1.00;;;;;-146.39;100.00;62182.44;6318199;20;3437787;-56
2023/01/31 02:36:43;;;;;;;;;1.25;1.25;;;;;-146.39;100.00;62182.44;6335217;20;1818073;-59
2023/01/31 02:39:41;;;;;;;;;6.50;4.50;;;;;-146.39;100.00;62182.44;6331931;20;1825507;-59
2023/01/31 02:42:34;;;;;;;;;6.25;3.00;;;;;-146.39;100.00;62182.44;6333781;20;1817027;-59
2023/01/31 02:45:31;;;;;;;;;1.33;1.33;;;;;-146.39;100.00;62182.44;6320735;20;3439877;-58
2023/01/31 02:48:40;;;;;;;;;3.00;3.00;;;;;-146.39;100.00;62182.44;6332870;20;1825360;-58
2023/01/31 02:51:25;;;;;;;;;6.67;5.00;;;;;-146.39;100.00;62182.44;6316705;20;3461796;-58
2023/01/31 02:54:14;;;;;;;;;1.00;0.00;;;;;-146.39;100.00;62182.44;6315658;20;3446190;-57
2023/01/31 02:56:46;;;;;;;;;5.50;3.00;;;;;-146.39;100.00;62182.44;6333119;20;1825372;-59
2023/01/31 02:59:26;;;;;;;;;4.25;1.00;;;;;-146.39;100.00;62182.44;6335250;20;1819100;-58
2023/01/31 03:02:00;;;;;;;;;2.25;2.25;;;;;-146.39;100.00;62182.44;6333217;20;1825308;-59
2023/01/31 03:04:40;;;;;;;;;6.00;3.00;;;;;-146.39;100.00;62182.44;6335063;20;1813858;-58
2023/01/31 03:07:21;;;;;;;;;2.00;2.00;;;;;-146.39;100.00;62182.44;6331872;20;1809480;-59
2023/01/31 03:10:51;;;;;;;;;6.50;6.50;;;;;-146.39;100.00;62182.44;6330254;20;1825394;-58
2023/01/31 03:14:05;;;;;;;;;17.00;6.00;;;;;-146.39;100.00;62182.44;6306089;20;2790904;-59
2023/01/31 03:20:11;;;;;;;;;0.33;0.33;;;;;-146.39;100.00;62182.44;6281981;20;3432553;-59
2023/01/31 03:22:57;;;;;;;;;2.75;2.75;;;;;-146.39;100.00;62182.44;6330083;20;1814860;-59
2023/01/31 03:25:31;;;;;;;;;7.00;7.00;;;;;-146.39;100.00;62182.44;6312858;20;2739883;-60
2023/01/31 03:28:08;;;;;;;;;12.25;7.00;;;;;-146.39;100.00;62182.44;6300473;20;1825403;-59
2023/01/31 03:30:47;;;;;;;;;3.75;2.00;;;;;-146.39;100.00;62182.44;6332557;20;1825455;-58
2023/01/31 03:33:29;;;;;;;;;7.75;6.75;;;;;-146.39;100.00;62182.44;6335424;20;1817551;-59
2023/01/31 03:36:31;;;;;;;;;5.75;4.50;;;;;-146.39;100.00;62182.44;6331705;20;1823334;-60
2023/01/31 03:39:13;;;;;;;;;8.00;5.00;;;;;-146.39;100.00;62182.44;6314895;20;2754452;-59
2023/01/31 03:42:33;;;;;;;;;4.50;2.00;;;;;-146.39;100.00;62182.44;6333760;20;1817769;-54
2023/01/31 03:45:29;;;;;;;;;7.67;5.00;;;;;-146.39;100.00;62182.44;6335591;20;1817004;-57
2023/01/31 03:48:02;;;;;;;;;6.75;3.00;;;;;-146.39;100.00;62182.44;6332979;20;1825409;-58
2023/01/31 03:50:41;;;;;;;;;7.00;3.00;;;;;-146.39;100.00;62182.44;6312035;20;2740944;-59
2023/01/31 03:53:32;;;;;;;;;5.67;3.00;;;;;-146.39;100.00;62182.44;6312758;20;3452357;-58
2023/01/31 03:56:36;;;;;;;;;4.20;3.20;;;;;-146.39;100.00;62182.44;6339090;20;2746123;-58
2023/01/31 03:59:16;;;;;;;;;3.00;3.00;;;;;-146.39;100.00;62182.44;6328580;20;1825384;-59
2023/01/31 04:01:52;;;;;;;;;7.00;3.00;;;;;-146.39;100.00;62182.44;6316987;20;3444052;-58
2023/01/31 04:04:31;;;;;;;;;7.50;5.00;;;;;-146.39;100.00;62182.44;6310690;20;2744015;-58
2023/01/31 04:07:00;;;;;;;;;2.67;1.00;;;;;-146.39;100.00;62182.44;6311679;20;3454476;-59
2023/01/31 04:09:28;;;;;;;;;6.00;3.00;;;;;-146.39;100.00;62182.44;6312073;20;2748579;-58
2023/01/31 04:12:00;;;;;;;;;7.00;3.00;;;;;-146.39;100.00;62182.44;6299115;20;1807583;-58
2023/01/31 04:14:29;;;;;;;;;3.00;3.00;;;;;-146.39;100.00;62182.44;6316870;20;2744140;-59
2023/01/31 04:16:57;;;;;;;;;5.50;2.50;;;;;-146.39;100.00;62182.44;6333626;20;1811896;-58
2023/01/31 04:19:25;;;;;;;;;2.00;1.00;;;;;-146.39;100.00;62182.44;6313208;20;3441026;-59
2023/01/31 04:21:53;;;;;;;;;3.00;3.00;;;;;-146.39;100.00;62182.44;6313564;20;2735768;-60
2023/01/31 04:24:22;;;;;;;;;4.00;4.00;;;;;-146.39;100.00;62182.44;6332318;20;1825377;-59
2023/01/31 04:26:51;;;;;;;;;3.67;3.00;;;;;-146.39;100.00;62182.44;6336341;20;1821345;-58
2023/01/31 04:29:19;;;;;;;;;3.00;3.00;;;;;-146.39;100.00;62182.44;6333134;20;1821275;-59
2023/01/31 04:31:48;;;;;;;;;3.75;3.00;;;;;-146.39;100.00;62182.44;6332884;20;1822322;-60
2023/01/31 04:34:16;;;;;;;;;3.50;3.25;;;;;-146.39;100.00;62182.44;6336283;20;1816806;-59
2023/01/31 04:36:45;;;;;;;;;3.25;1.50;;;;;-146.39;100.00;62182.44;6334204;20;1815922;-58
2023/01/31 04:39:14;;;;;;;;;5.50;4.00;;;;;-146.39;100.00;62182.44;6331739;20;1822014;-59
2023/01/31 04:41:43;;;;;;;;;4.25;3.00;;;;;-146.39;100.00;62182.44;6327483;20;1823309;-60
2023/01/31 04:44:12;;;;;;;;;3.00;3.00;;;;;-146.39;100.00;62182.44;6325848;20;1813657;-59
2023/01/31 04:46:39;;;;;;;;;4.33;2.00;;;;;-146.39;100.00;62182.44;6315016;20;3464862;-59
2023/01/31 04:49:08;;;;;;;;;2.67;1.00;;;;;-146.39;100.00;62182.44;6287127;20;3442039;-58
2023/01/31 04:51:37;;;;;;;;;2.75;2.75;;;;;-146.39;100.00;62182.44;6329945;20;1820201;-60
2023/01/31 04:54:05;;;;;;;;;6.75;2.25;;;;;-146.39;100.00;62182.44;6331360;20;1825342;-60
2023/01/31 04:56:34;;;;;;;;;2.00;2.00;;;;;-146.39;100.00;62182.44;6331320;20;1822303;-59
2023/01/31 04:59:03;;;;;;;;;2.50;2.00;;;;;-146.39;100.00;62182.44;6334893;20;1819226;-60
2023/01/31 05:01:31;;;;;;;;;7.00;3.00;;;;;-146.39;100.00;62182.44;6329699;20;1823324;-60
2023/01/31 05:04:00;;;;;;;;;6.75;3.00;;;;;-146.39;100.00;62182.44;6332072;20;1810710;-59
2023/01/31 05:06:27;;;;;;;;;4.67;3.67;;;;;-146.39;100.00;62182.44;6314667;20;3465874;-58
2023/01/31 05:09:00;;;;;;;;;7.00;6.25;;;;;-146.39;100.00;62182.44;6301313;20;1823247;-57
2023/01/31 05:11:28;;;;;;;;;10.50;10.00;;;;;-146.39;100.00;62182.44;6313840;20;2764965;-57
2023/01/31 05:13:57;;;;;;;;;24.33;14.33;;;;;-146.39;100.00;62182.44;6281158;20;3561797;-58
2023/01/31 05:16:25;;;;;;;;;11.00;11.00;;;;;-146.39;100.00;62182.44;6314538;20;2783780;-58
2023/01/31 05:18:56;;;;;;;;;6.50;6.50;;;;;-146.39;100.00;62182.44;6328231;20;1812927;-58
2023/01/31 05:21:24;;;;;;;;;18.00;14.67;;;;;-146.39;100.00;62182.44;6284294;20;3553446;-59
2023/01/31 05:23:52;;;;;;;;;8.00;6.50;;;;;-146.39;100.00;62182.44;6315121;20;2748206;-59
2023/01/31 05:26:20;;;;;;;;;4.50;3.00;;;;;-146.39;100.00;62182.44;6301144;20;1816667;-59
2023/01/31 05:28:49;;;;;;;;;6.75;4.50;;;;;-146.39;100.00;62182.44;6331609;20;1812826;-53
2023/01/31 05:31:18;;;;;;;;;6.00;5.00;;;;;-146.39;100.00;62182.44;6333081;20;1823302;-58
2023/01/31 05:33:46;;;;;;;;;6.33;5.33;;;;;-146.39;100.00;62182.44;6309702;20;3460708;-58
2023/01/31 05:36:14;;;;;;;;;6.00;4.00;;;;;-146.39;100.00;62182.44;6332563;20;1809397;-59
2023/01/31 05:38:47;;;;;;;;;11.00;6.83;;;;;-146.39;100.00;62182.44;6356247;20;1804474;-59
2023/01/31 05:41:14;;;;;;;;;7.00;5.50;;;;;-146.39;100.00;62182.44;6282652;20;2752378;-59
2023/01/31 05:43:42;;;;;;;;;5.00;5.00;;;;;-146.39;100.00;62182.44;6279937;20;2754484;-59
2023/01/31 05:46:10;;;;;;;;;3.25;3.25;;;;;-146.39;100.00;62182.44;6332505;20;1814988;-60
2023/01/31 05:48:38;;;;;;;;;6.00;5.00;;;;;-146.39;100.00;62182.44;6310332;20;2754475;-58
2023/01/31 05:51:07;;;;;;;;;6.25;3.00;;;;;-146.39;100.00;62182.44;6291897;20;1812924;-59
2023/01/31 05:53:35;;;;;;;;;5.00;1.00;;;;;-146.39;100.00;62182.44;6310510;20;3449251;-57
2023/01/31 05:56:02;;;;;;;;;5.00;3.67;;;;;-146.39;100.00;62182.44;6316918;20;3450247;-57
2023/01/31 05:58:31;;;;;;;;;3.00;3.00;;;;;-146.39;100.00;62182.44;6333271;20;1822328;-57
2023/01/31 06:00:59;;;;;;;;;1.00;1.00;;;;;-146.39;100.00;62182.44;6306670;20;3452745;-57
2023/01/31 06:03:27;;;;;;;;;2.00;2.00;;;;;-146.39;100.00;62182.44;6313074;20;3441067;-59
2023/01/31 06:05:55;;;;;;;;;5.00;2.33;;;;;-146.39;100.00;62182.44;6311355;20;3466938;-60
2023/01/31 06:08:23;;;;;;;;;1.25;1.25;;;;;-146.39;100.00;62182.44;6300041;20;1810258;-60
2023/01/31 06:10:52;;;;;;;;;5.00;2.00;;;;;-146.39;100.00;62182.44;6332147;20;1816103;-58
2023/01/31 06:13:20;;;;;;;;;6.00;2.00;;;;;-146.39;100.00;62182.44;6326925;20;1825384;-56
2023/01/31 06:15:49;;;;;;;;;6.75;5.75;;;;;-146.39;100.00;62182.44;6330992;20;1820108;-58
2023/01/31 06:18:18;;;;;;;;;7.00;7.00;;;;;-146.39;100.00;62182.44;6335064;20;1809818;-57
2023/01/31 06:20:46;;;;;;;;;6.50;2.75;;;;;-146.39;100.00;62182.44;6330147;20;1813649;-58
2023/01/31 06:23:15;;;;;;;;;2.00;2.00;;;;;-146.39;100.00;62182.44;6332206;20;1821224;-58
2023/01/31 06:25:48;;;;;;;;;3.00;3.00;;;;;-146.39;100.00;62182.44;6329689;20;1812320;-57
2023/01/31 06:28:17;;;;;;;;;3.75;3.50;;;;;-146.39;100.00;62182.44;6334139;20;1808093;-57
2023/01/31 06:30:46;;;;;;;;;6.00;4.50;;;;;-146.39;100.00;62182.44;6329754;20;1821157;-58
2023/01/31 06:33:16;;;;;;;;;3.00;2.00;;;;;-146.39;100.00;62182.44;6328258;20;1825388;-59
2023/01/31 06:35:44;;;;;;;;;4.33;3.00;;;;;-146.39;100.00;62182.44;6315594;20;3445090;-56
2023/01/31 06:38:12;;;;;;;;;1.00;0.00;;;;;-146.39;100.00;62182.44;6313866;20;3440894;-59
2023/01/31 06:40:40;;;;;;;;;3.25;3.00;;;;;-146.39;100.00;62182.44;6330415;20;1817608;-57
2023/01/31 06:43:08;;;;;;;;;5.67;3.67;;;;;-146.39;100.00;62182.44;6313905;20;3466951;-54
2023/01/31 06:45:36;;;;;;;;;3.00;2.50;;;;;-146.39;100.00;62182.44;6301305;20;1809684;-58
2023/01/31 06:48:05;;;;;;;;;4.25;4.25;;;;;-146.39;100.00;62182.44;6332498;20;1820594;-59
2023/01/31 06:50:34;;;;;;;;;6.00;4.75;;;;;-146.39;100.00;62182.44;6330500;20;1809656;-56
2023/01/31 06:53:03;;;;;;;;;3.00;3.00;;;;;-146.39;100.00;62182.44;6332232;20;1821824;-58
2023/01/31 06:55:31;;;;;;;;;3.00;3.00;;;;;-146.39;100.00;62182.44;6328745;20;1825442;-56
2023/01/31 06:58:00;;;;;;;;;2.00;2.00;;;;;-146.39;100.00;62182.44;6327058;20;1825583;-57
2023/01/31 07:00:29;;;;;;;;;2.75;1.75;;;;;-146.39;100.00;62182.44;6328821;20;1818239;-59
2023/01/31 07:02:57;;;;;;;;;3.00;3.00;;;;;-146.39;100.00;62182.44;6334556;20;1824396;-59
2023/01/31 07:05:27;;;;;;;;;3.00;3.00;;;;;-146.39;100.00;62182.44;6337712;20;1817064;-59
2023/01/31 07:07:56;;;;;;;;;17.00;13.00;;;;;-146.39;100.00;62182.44;6310657;20;2802429;-53
2023/01/31 07:10:24;;;;;;;;;2.00;2.00;;;;;-146.39;100.00;62182.44;6333253;20;1815576;-56
2023/01/31 07:12:52;;;;;;;;;6.00;4.00;;;;;-146.39;100.00;62182.44;6321649;20;2744064;-57
2023/01/31 07:15:20;;;;;;;;;3.00;2.00;;;;;-146.39;100.00;62182.44;6289688;20;2730562;-57
2023/01/31 07:17:48;;;;;;;;;2.00;2.00;;;;;-146.39;100.00;62182.44;6290720;20;2752459;-55
2023/01/31 07:20:16;;;;;;;;;3.00;2.00;;;;;-146.39;100.00;62182.44;6286115;20;2748229;-53
2023/01/31 07:22:44;;;;;;;;;4.00;3.00;;;;;-146.39;100.00;62182.44;6318163;20;2752472;-57
2023/01/31 07:25:12;;;;;;;;;3.50;2.50;;;;;-146.39;100.00;62182.44;6295325;20;1813972;-54
2023/01/31 07:27:41;;;;;;;;;1.00;1.00;;;;;-146.39;100.00;62182.44;6341245;20;1804488;-57
2023/01/31 07:30:10;;;;;;;;;3.00;1.00;;;;;-146.39;100.00;62182.44;6309587;20;3450339;-56
2023/01/31 07:32:38;;;;;;;;;4.00;2.00;;;;;-146.39;100.00;62182.44;6287180;20;2750308;-57
2023/01/31 07:35:08;;;;;;;;;3.00;2.00;;;;;-146.39;100.00;62182.44;6299072;20;1812935;-57
2023/01/31 07:37:38;;;;;;;;;3.00;1.50;;;;;-146.39;100.00;62182.44;6331847;20;1813946;-58
2023/01/31 07:40:10;;;;;;;;;1.75;1.00;;;;;-146.39;100.00;62182.44;6330915;20;1810710;-59
2023/01/31 07:42:39;;;;;;;;;3.00;1.33;;;;;-146.39;100.00;62182.44;6319813;20;3442990;-57
2023/01/31 07:45:13;;;;;;;;;3.00;2.75;;;;;-146.39;100.00;62182.44;6300775;20;1810746;-58
2023/01/31 07:47:51;;;;;;;;;2.00;2.00;;;;;-146.39;100.00;62182.44;6315866;20;3439830;-58
2023/01/31 07:50:19;;;;;;;;;0.50;0.50;;;;;-146.39;100.00;62182.44;6299524;20;1817776;-58
2023/01/31 07:52:49;;;;;;;;;1.75;1.25;;;;;-146.39;100.00;62182.44;6334121;20;1816081;-58
2023/01/31 07:55:17;;;;;;;;;1.00;1.00;;;;;-146.39;100.00;62182.44;6315586;20;3448216;-56
2023/01/31 07:57:45;;;;;;;;;2.00;2.00;;;;;-146.39;100.00;62182.44;6288077;20;3446146;-57
2023/01/31 08:05:48;;;;;;;;;4.00;4.00;;;;;-146.39;100.00;62182.44;6333978;20;1818126;-58
2023/01/31 08:08:17;;;;;;;;;1.75;1.75;;;;;-146.39;100.00;62182.44;6334483;20;1815996;-56
2023/01/31 08:10:46;;;;;;;;;14.50;8.50;;;;;-146.39;100.00;62182.44;6330834;20;1821885;-56
2023/01/31 08:13:14;;;;;;;;;5.75;3.00;;;;;-146.39;100.00;62182.44;6332421;20;1812224;-59
2023/01/31 08:15:42;;;;;;;;;1.00;1.00;;;;;-146.39;100.00;62182.44;6333442;20;1804567;-58
2023/01/31 08:18:10;;;;;;;;;3.00;3.00;;;;;-146.39;100.00;62182.44;6316953;20;2739891;-57
2023/01/31 08:20:40;;;;;;;;;5.00;5.00;;;;;-146.39;100.00;62182.44;6332964;20;1812847;-57
2023/01/31 08:23:08;;;;;;;;;5.50;2.50;;;;;-146.39;100.00;62182.44;6334735;20;1814752;-51
2023/01/31 08:25:37;;;;;;;;;6.00;5.50;;;;;-146.39;100.00;62182.44;6329972;20;1814996;-55
2023/01/31 08:28:06;;;;;;;;;1.75;1.00;;;;;-146.39;100.00;62182.44;6334889;20;1806680;-58
2023/01/31 08:30:38;;;;;;;;;1.00;1.00;;;;;-146.39;100.00;62182.44;6317105;20;3433436;-55
2023/01/31 08:33:11;;;;;;;;;4.17;3.67;;;;;-146.39;100.00;62182.44;6357003;20;1801775;-55
2023/01/31 08:35:38;;;;;;;;;5.00;4.00;;;;;-146.39;100.00;62182.44;6285097;20;3467971;-52
2023/01/31 08:38:07;;;;;;;;;4.75;4.00;;;;;-146.39;100.00;62182.44;6304058;20;1823295;-53
2023/01/31 08:40:44;;;;;;;;;3.25;2.00;;;;;-146.39;100.00;62182.44;6331496;20;1804450;-55
2023/01/31 08:43:13;;;;;;;;;1.00;1.00;;;;;-146.39;100.00;62182.44;6333678;20;1818676;-56
2023/01/31 08:45:42;;;;;;;;;3.00;2.50;;;;;-146.39;100.00;62182.44;6333915;20;1817052;-55
2023/01/31 08:48:11;;;;;;;;;2.00;2.00;;;;;-146.39;100.00;62182.44;6334333;20;1816008;-55
2023/01/31 08:50:39;;;;;;;;;3.00;3.00;;;;;-146.39;100.00;62182.44;6312807;20;2756535;-58
2023/01/31 08:53:08;;;;;;;;;1.25;1.25;;;;;-146.39;100.00;62182.44;6301920;20;1796144;-57
2023/01/31 08:55:37;;;;;;;;;5.25;2.00;;;;;-146.39;100.00;62182.44;6330728;20;1812890;-56
2023/01/31 08:58:05;;;;;;;;;4.00;2.50;;;;;-146.39;100.00;62182.44;6316893;20;2748257;-55
2023/01/31 09:00:34;;;;;;;;;1.67;1.67;;;;;-146.39;100.00;62182.44;6331157;20;1815554;-55
2023/01/31 09:03:03;;;;;;;;;3.75;3.00;;;;;-146.39;100.00;62182.44;6332164;20;1815490;-56
2023/01/31 09:05:31;;;;;;;;;12.00;7.00;;;;;-146.39;100.00;62182.44;6316126;20;2759663;-57
2023/01/31 09:08:00;;;;;;;;;9.75;5.50;;;;;-146.39;100.00;62182.44;6302816;20;1819670;-56
2023/01/31 09:10:29;;;;;;;;;11.00;5.50;;;;;-146.39;100.00;62182.44;6323139;20;1814358;-57
2023/01/31 09:13:00;;;;;;;;;4.75;4.75;;;;;-146.39;100.00;62182.44;6335398;20;1816760;-56
2023/01/31 09:15:27;;;;;;;;;4.00;3.00;;;;;-146.39;100.00;62182.44;6317990;20;2749236;-58
2023/01/31 09:17:55;;;;;;;;;10.00;9.50;;;;;-146.39;100.00;62182.44;6281131;20;2772428;-57
2023/01/31 09:20:23;;;;;;;;;14.00;13.00;;;;;-146.39;100.00;62182.44;6285180;20;2804460;-58
2023/01/31 09:22:50;;;;;;;;;8.00;8.00;;;;;-146.39;100.00;62182.44;6285399;20;2743115;-57
2023/01/31 09:25:20;;;;;;;;;4.50;3.00;;;;;-146.39;100.00;62182.44;6316142;20;2744171;-57
2023/01/31 09:28:07;;;;;;;;;11.00;3.00;;;;;-146.39;100.00;62182.44;6280178;20;2771131;-56
2023/01/31 09:30:37;;;;;;;;;7.75;6.75;;;;;-146.39;100.00;62182.44;6302086;20;1833896;-56
2023/01/31 09:33:04;;;;;;;;;17.00;11.00;;;;;-146.39;100.00;62182.44;6312600;20;2687816;-58
2023/01/31 09:35:35;;;;;;;;;8.67;8.00;;;;;-146.39;100.00;62182.44;6321197;20;1804936;-56
2023/01/31 09:38:05;;;;;;;;;12.00;8.60;;;;;-146.39;100.00;62182.44;6310131;20;2756571;-58
2023/01/31 09:40:39;;;;;;;;;24.50;19.50;;;;;-146.39;100.00;62182.44;6312479;20;2831536;-58
2023/01/31 09:43:12;;;;;;;;;43.00;30.00;;;;;-146.39;100.00;62182.44;6281277;20;2865083;-56
2023/01/31 09:45:42;;;;;;;;;21.00;15.00;;;;;-146.39;100.00;62182.44;6314040;20;2805609;-57
2023/01/31 09:48:21;;;;;;;;;3.75;1.75;;;;;-146.39;100.00;62182.44;6300632;20;1813950;-57
2023/01/31 09:50:54;;;;;;;;;10.00;9.00;;;;;-146.39;100.00;62182.44;6309875;20;2761098;-58
2023/01/31 09:53:35;;;;;;;;;10.50;8.00;;;;;-146.39;100.00;62182.44;6285187;20;2758729;-58
2023/01/31 09:56:41;;;;;;;;;3.75;3.75;;;;;-146.39;100.00;62182.44;6301518;20;1818273;-59
2023/01/31 09:59:45;;;;;;;;;15.60;13.60;;;;;-146.39;100.00;62182.44;6331724;20;2794199;-58
2023/01/31 10:02:46;;;;;;;;;2.75;2.75;;;;;-146.39;100.00;62182.44;6299875;20;1809565;-58
2023/01/31 10:05:57;;;;;;;;;3.00;3.00;;;;;-146.39;100.00;62182.44;6314725;20;2755618;-57
2023/01/31 10:08:42;;;;;;;;;1.25;1.25;;;;;-146.39;100.00;62182.44;6302010;20;1805537;-58
2023/01/31 10:11:38;;;;;;;;;2.67;1.00;;;;;-146.39;100.00;62182.44;6337431;20;1797240;-58
2023/01/31 10:14:30;;;;;;;;;2.00;2.00;;;;;-146.39;100.00;62182.44;6313082;20;2748246;-59
2023/01/31 10:17:37;;;;;;;;;2.00;2.00;;;;;-146.39;100.00;62182.44;6300209;20;1825355;-58
2023/01/31 10:20:22;;;;;;;;;1.00;1.00;;;;;-146.39;100.00;62182.44;6326293;20;1809648;-58
2023/01/31 10:23:32;;;;;;;;;1.50;1.50;;;;;-146.39;100.00;62182.44;6314845;20;2725289;-58
2023/01/31 10:26:31;;;;;;;;;4.00;2.00;;;;;-146.39;100.00;62182.44;6329274;20;1813927;-58
2023/01/31 10:29:33;;;;;;;;;2.00;1.00;;;;;-146.39;100.00;62182.44;6317726;20;1811990;-60
2023/01/31 10:32:50;;;;;;;;;2.50;2.50;;;;;-146.39;100.00;62182.44;6331775;20;1816340;-59
2023/01/31 10:35:30;;;;;;;;;3.50;2.00;;;;;-146.39;100.00;62182.44;6308546;20;2742504;-58
2023/01/31 10:39:16;;;;;;;;;2.00;0.00;;;;;-146.39;100.00;62182.44;6300597;20;1808671;-59
2023/01/31 10:42:01;;;;;;;;;3.00;1.75;;;;;-146.39;100.00;62182.44;6331488;20;1809812;-58
2023/01/31 10:44:54;;;;;;;;;3.00;2.00;;;;;-146.39;100.00;62182.44;6323402;20;2748265;-58
2023/01/31 10:47:36;;;;;;;;;7.00;5.00;;;;;-146.39;100.00;62182.44;6286209;20;2744027;-56
2023/01/31 10:50:37;;;;;;;;;2.00;2.00;;;;;-146.39;100.00;62182.44;6304585;20;1811872;-58
2023/01/31 10:53:25;;;;;;;;;1.00;0.00;;;;;-146.39;100.00;62182.44;6319042;20;3428425;-58
2023/01/31 10:56:26;;;;;;;;;3.00;2.33;;;;;-146.39;100.00;62182.44;6340089;20;1811802;-58
2023/01/31 10:58:57;;;;;;;;;2.00;2.00;;;;;-146.39;100.00;62182.44;6335867;20;1810760;-57
2023/01/31 11:01:26;;;;;;;;;9.00;7.00;;;;;-146.39;100.00;62182.44;6324489;20;2737876;-58
2023/01/31 11:03:56;;;;;;;;;1.75;1.75;;;;;-146.39;100.00;62182.44;6333650;20;1813715;-58
2023/01/31 11:06:24;;;;;;;;;8.00;6.00;;;;;-146.39;100.00;62182.44;6316685;20;2754445;-57
2023/01/31 11:08:59;;;;;;;;;8.60;7.00;;;;;-146.39;100.00;62182.44;6313413;20;2748395;-57
2023/01/31 11:11:29;;;;;;;;;6.00;6.00;;;;;-146.39;100.00;62182.44;6317105;20;2744115;-57
2023/01/31 11:14:05;;;;;;;;;4.00;3.00;;;;;-146.39;100.00;62182.44;6304865;20;1812287;-58
2023/01/31 11:16:38;;;;;;;;;14.40;8.40;;;;;-146.39;100.00;62182.44;6337658;20;2769007;-58
2023/01/31 11:19:23;;;;;;;;;13.00;9.50;;;;;-146.39;100.00;62182.44;6282602;20;2787942;-59
2023/01/31 11:21:52;;;;;;;;;13.50;10.00;;;;;-146.39;100.00;62182.44;6284079;20;2776423;-58
2023/01/31 11:24:26;;;;;;;;;13.00;9.00;;;;;-146.39;100.00;62182.44;6281904;20;2774352;-57
2023/01/31 11:27:21;;;;;;;;;12.86;10.29;;;;;-146.39;100.00;62182.44;6329703;20;1809466;-58
2023/01/31 11:29:53;;;;;;;;;8.00;6.50;;;;;-146.39;100.00;62182.44;6316549;20;2737774;-56
2023/01/31 11:32:35;;;;;;;;;8.50;5.00;;;;;-146.39;100.00;62182.44;6293071;20;2759695;-53
2023/01/31 11:35:28;;;;;;;;;3.00;3.00;;;;;-146.39;100.00;62182.44;6287250;20;2744057;-57
2023/01/31 11:38:11;;;;;;;;;13.00;9.50;;;;;-146.39;100.00;62182.44;6316792;20;2785733;-57